createdAt,value
2022-12-15T00:01:01.084Z,-7.97
2022-12-15T00:06:28.152Z,-7.96
2022-12-15T00:11:55.240Z,-7.94
2022-12-15T00:17:21.908Z,-7.94
2022-12-15T00:22:48.804Z,-7.95
2022-12-15T00:28:17.258Z,-7.98
2022-12-15T00:33:42.691Z,-8.00
2022-12-15T00:38:50.386Z,-8.02
2022-12-15T00:43:58.936Z,-8.03
2022-12-15T00:49:29.177Z,-8.05
2022-12-15T00:54:56.449Z,-8.07
2022-12-15T01:00:23.723Z,-8.09
2022-12-15T01:05:49.579Z,-8.12
2022-12-15T01:11:20.942Z,-8.12
2022-12-15T01:16:48.091Z,-8.13
2022-12-15T01:21:56.282Z,-8.14
2022-12-15T01:27:04.895Z,-8.12
2022-12-15T01:32:13.057Z,-8.11
2022-12-15T01:37:21.506Z,-8.09
2022-12-15T01:42:29.155Z,-8.07
2022-12-15T01:47:37.754Z,-8.03
2022-12-15T01:52:46.921Z,-8.02
2022-12-15T01:58:03.547Z,-8.00
2022-12-15T02:03:12.719Z,-7.97
2022-12-15T02:08:21.564Z,-7.95
2022-12-15T02:13:37.641Z,-7.93
2022-12-15T02:18:56.073Z,-7.90
2022-12-15T02:24:31.098Z,-7.88
2022-12-15T02:30:12.096Z,-7.88
2022-12-15T02:35:27.629Z,-7.89
2022-12-15T02:40:35.370Z,-7.91
2022-12-15T02:45:55.204Z,-7.96
2022-12-15T02:51:26.583Z,-8.02
2022-12-15T02:56:46.806Z,-8.10
2022-12-15T03:02:00.555Z,-8.17
2022-12-15T03:07:12.734Z,-8.25
2022-12-15T03:12:20.788Z,-8.32
2022-12-15T03:17:29.311Z,-8.38
2022-12-15T03:22:37.918Z,-8.43
2022-12-15T03:27:47.108Z,-8.46
2022-12-15T03:32:55.261Z,-8.48
2022-12-15T03:38:03.368Z,-8.47
2022-12-15T03:43:11.629Z,-8.43
2022-12-15T03:48:19.745Z,-8.39
2022-12-15T03:53:27.441Z,-8.33
2022-12-15T03:58:36.074Z,-8.27
2022-12-15T04:03:44.476Z,-8.21
2022-12-15T04:08:52.209Z,-8.17
2022-12-15T04:14:00.327Z,-8.12
2022-12-15T04:19:25.860Z,-8.06
2022-12-15T04:24:51.410Z,-8.00
2022-12-15T04:30:18.261Z,-7.93
2022-12-15T04:35:44.686Z,-7.85
2022-12-15T04:41:16.490Z,-7.76
2022-12-15T04:46:43.204Z,-7.71
2022-12-15T04:52:10.000Z,-7.62
2022-12-15T04:57:36.951Z,-7.56
2022-12-15T05:03:02.710Z,-7.48
2022-12-15T05:08:29.478Z,-7.41
2022-12-15T05:13:55.303Z,-7.32
2022-12-15T05:19:21.357Z,-7.25
2022-12-15T05:24:46.879Z,-7.17
2022-12-15T05:30:13.644Z,-7.09
2022-12-15T05:35:22.296Z,-7.00
2022-12-15T05:40:30.419Z,-6.92
2022-12-15T05:45:38.738Z,-6.84
2022-12-15T05:50:47.003Z,-6.75
2022-12-15T05:56:05.838Z,-6.67
2022-12-15T06:01:17.028Z,-6.61
2022-12-15T06:06:25.590Z,-6.57
2022-12-15T06:11:34.057Z,-6.52
2022-12-15T06:16:50.201Z,-6.48
2022-12-15T06:21:59.582Z,-6.42
2022-12-15T06:27:07.921Z,-6.37
2022-12-15T06:32:16.057Z,-6.34
2022-12-15T06:37:24.708Z,-6.31
2022-12-15T06:42:32.832Z,-6.27
2022-12-15T06:47:41.456Z,-6.23
2022-12-15T06:52:50.472Z,-6.19
2022-12-15T06:57:59.064Z,-6.14
2022-12-15T07:03:09.803Z,-6.11
2022-12-15T07:08:19.676Z,-6.05
2022-12-15T07:13:28.469Z,-6.02
2022-12-15T07:18:36.852Z,-5.97
2022-12-15T07:23:54.899Z,-5.88
2022-12-15T07:29:05.606Z,-5.80
2022-12-15T07:34:13.867Z,-5.78
2022-12-15T07:39:22.151Z,-5.74
2022-12-15T07:44:32.355Z,-5.66
2022-12-15T07:49:41.021Z,-5.60
2022-12-15T07:54:49.396Z,-5.57
2022-12-15T07:59:57.570Z,-5.55
2022-12-15T08:05:06.082Z,-5.49
2022-12-15T08:10:15.027Z,-5.43
2022-12-15T08:15:23.571Z,-5.36
2022-12-15T08:20:32.212Z,-5.30
2022-12-15T08:25:40.657Z,-5.27
2022-12-15T08:30:49.667Z,-5.25
2022-12-15T08:36:01.726Z,-5.24
2022-12-15T08:41:14.830Z,-5.29
2022-12-15T08:46:24.833Z,-5.21
2022-12-15T08:51:34.757Z,-5.19
2022-12-15T08:56:43.313Z,-5.17
2022-12-15T09:01:50.895Z,-5.14
2022-12-15T09:06:59.454Z,-5.12
2022-12-15T09:12:08.575Z,-5.11
2022-12-15T09:17:16.977Z,-5.09
2022-12-15T09:22:25.175Z,-5.05
2022-12-15T09:27:32.799Z,-5.02
2022-12-15T09:32:40.788Z,-4.99
2022-12-15T09:37:51.902Z,-4.97
2022-12-15T09:43:32.743Z,-4.93
2022-12-15T09:48:41.368Z,-4.88
2022-12-15T09:53:55.207Z,-4.84
2022-12-15T09:59:11.778Z,-4.79
2022-12-15T10:04:31.172Z,-4.74
2022-12-15T10:09:40.868Z,-4.70
2022-12-15T10:14:56.863Z,-4.67
2022-12-15T10:20:18.362Z,-4.62
2022-12-15T10:25:30.877Z,-4.57
2022-12-15T10:30:44.288Z,-4.53
2022-12-15T10:35:56.777Z,-4.49
2022-12-15T10:41:06.580Z,-4.43
2022-12-15T10:46:20.257Z,-4.38
2022-12-15T10:51:32.004Z,-4.33
2022-12-15T10:56:51.890Z,-4.30
2022-12-15T11:02:23.780Z,-4.28
2022-12-15T11:07:38.281Z,-4.25
2022-12-15T11:12:58.186Z,-4.23
2022-12-15T11:18:15.575Z,-4.20
2022-12-15T11:23:28.883Z,-4.19
2022-12-15T11:28:45.123Z,-4.16
2022-12-15T11:33:57.397Z,-4.13
2022-12-15T11:39:15.753Z,-4.08
2022-12-15T11:44:29.187Z,-4.03
2022-12-15T11:49:58.488Z,-3.97
2022-12-15T11:55:14.875Z,-3.92
2022-12-15T12:00:24.220Z,-3.84
2022-12-15T12:06:09.280Z,-3.76
2022-12-15T12:11:20.581Z,-3.69
2022-12-15T12:16:39.733Z,-3.63
2022-12-15T12:21:51.519Z,-3.57
2022-12-15T12:27:03.809Z,-3.54
2022-12-15T12:32:13.789Z,-3.52
2022-12-15T12:37:28.094Z,-3.51
2022-12-15T12:42:43.498Z,-3.49
2022-12-15T12:47:56.333Z,-3.48
2022-12-15T12:53:05.421Z,-3.47
2022-12-15T12:58:36.927Z,-3.48
2022-12-15T13:03:45.834Z,-3.49
2022-12-15T13:08:56.396Z,-3.52
2022-12-15T13:14:09.217Z,-3.55
2022-12-15T13:20:06.860Z,-3.58
2022-12-15T13:25:40.027Z,-3.62
2022-12-15T13:31:28.052Z,-3.65
2022-12-15T13:36:56.351Z,-3.70
2022-12-15T13:42:35.074Z,-3.73
2022-12-15T13:47:59.068Z,-3.76
2022-12-15T13:53:19.499Z,-3.75
2022-12-15T13:58:28.804Z,-3.75
2022-12-15T14:03:37.839Z,-3.76
2022-12-15T14:08:45.570Z,-3.77
2022-12-15T14:14:03.681Z,-3.76
2022-12-15T14:19:19.341Z,-3.78
2022-12-15T14:24:39.632Z,-3.77
2022-12-15T14:29:50.768Z,-3.75
2022-12-15T14:34:59.289Z,-3.73
2022-12-15T14:40:09.111Z,-3.73
2022-12-15T14:45:26.318Z,-3.74
2022-12-15T14:50:35.167Z,-3.75
2022-12-15T14:55:43.554Z,-3.75
2022-12-15T15:00:55.457Z,-3.75
2022-12-15T15:06:17.290Z,-3.74
2022-12-15T15:11:32.412Z,-3.72
2022-12-15T15:16:41.101Z,-3.70
2022-12-15T15:21:49.666Z,-3.68
2022-12-15T15:27:17.711Z,-3.66
2022-12-15T15:32:26.978Z,-3.64
2022-12-15T15:37:36.120Z,-3.63
2022-12-15T15:42:45.771Z,-3.62
2022-12-15T15:47:55.981Z,-3.61
2022-12-15T15:53:06.142Z,-3.61
2022-12-15T15:58:17.602Z,-3.61
2022-12-15T16:03:26.244Z,-3.61
2022-12-15T16:08:38.073Z,-3.61
2022-12-15T16:13:46.405Z,-3.62
2022-12-15T16:18:54.631Z,-3.63
2022-12-15T16:24:06.807Z,-3.64
2022-12-15T16:29:16.477Z,-3.64
2022-12-15T16:34:25.127Z,-3.65
2022-12-15T16:39:36.380Z,-3.72
2022-12-15T16:44:44.923Z,-3.74
2022-12-15T16:49:53.349Z,-3.79
2022-12-15T16:55:04.010Z,-3.83
2022-12-15T17:00:19.950Z,-3.89
2022-12-15T17:05:29.791Z,-3.96
2022-12-15T17:10:37.970Z,-3.96
2022-12-15T17:15:47.381Z,-3.97
2022-12-15T17:21:03.517Z,-3.98
2022-12-15T17:26:29.283Z,-4.00
2022-12-15T17:31:38.193Z,-4.03
2022-12-15T17:36:46.986Z,-4.05
2022-12-15T17:42:00.616Z,-4.06
2022-12-15T17:47:11.608Z,-4.09
2022-12-15T17:52:34.821Z,-4.13
2022-12-15T17:57:43.626Z,-4.19
2022-12-15T18:02:52.235Z,-4.26
2022-12-15T18:08:02.117Z,-4.31
2022-12-15T18:13:19.619Z,-4.42
2022-12-15T18:18:28.105Z,-4.41
2022-12-15T18:23:36.545Z,-4.44
2022-12-15T18:28:44.934Z,-4.45
2022-12-15T18:33:55.652Z,-4.48
2022-12-15T18:39:24.028Z,-4.50
2022-12-15T18:44:36.624Z,-4.54
2022-12-15T18:49:45.145Z,-4.55
2022-12-15T18:54:55.024Z,-4.56
2022-12-15T19:00:04.915Z,-4.59
2022-12-15T19:05:27.982Z,-4.63
2022-12-15T19:10:39.202Z,-4.67
2022-12-15T19:15:47.591Z,-4.71
2022-12-15T19:21:12.281Z,-4.76
2022-12-15T19:26:19.876Z,-4.81
2022-12-15T19:31:28.218Z,-4.86
2022-12-15T19:36:37.714Z,-4.91
2022-12-15T19:41:46.962Z,-4.96
2022-12-15T19:46:55.332Z,-5.00
2022-12-15T19:52:03.842Z,-5.03
2022-12-15T19:57:16.028Z,-5.07
2022-12-15T20:02:23.536Z,-5.10
2022-12-15T20:07:32.898Z,-5.12
2022-12-15T20:12:41.763Z,-5.15
2022-12-15T20:17:51.082Z,-5.18
2022-12-15T20:23:02.951Z,-5.20
2022-12-15T20:28:18.314Z,-5.22
2022-12-15T20:33:25.995Z,-5.20
2022-12-15T20:38:36.243Z,-5.25
2022-12-15T20:43:45.072Z,-5.15
2022-12-15T20:48:55.000Z,-5.12
2022-12-15T20:54:04.312Z,-5.10
2022-12-15T20:59:12.820Z,-5.07
2022-12-15T21:04:28.306Z,-5.04
2022-12-15T21:09:35.781Z,-5.01
2022-12-15T21:14:44.498Z,-4.99
2022-12-15T21:19:54.844Z,-4.95
2022-12-15T21:25:03.519Z,-4.91
2022-12-15T21:30:20.909Z,-4.87
2022-12-15T21:35:31.907Z,-4.82
2022-12-15T21:40:40.517Z,-4.78
2022-12-15T21:45:48.920Z,-4.76
2022-12-15T21:50:57.271Z,-4.74
2022-12-15T21:56:05.671Z,-4.73
2022-12-15T22:01:16.632Z,-4.70
2022-12-15T22:06:27.373Z,-4.67
2022-12-15T22:11:36.073Z,-4.65
2022-12-15T22:16:44.385Z,-4.63
2022-12-15T22:21:52.811Z,-4.59
2022-12-15T22:27:01.086Z,-4.56
2022-12-15T22:32:15.332Z,-4.54
2022-12-15T22:37:23.871Z,-4.51
2022-12-15T22:42:31.934Z,-4.48
2022-12-15T22:47:41.550Z,-4.45
2022-12-15T22:52:50.150Z,-4.42
2022-12-15T22:58:03.461Z,-4.39
2022-12-15T23:03:13.833Z,-4.37
2022-12-15T23:08:21.994Z,-4.34
2022-12-15T23:13:30.392Z,-4.33
2022-12-15T23:18:38.723Z,-4.32
2022-12-15T23:23:48.068Z,-4.30
2022-12-15T23:28:56.463Z,-4.29
2022-12-15T23:34:04.905Z,-4.27
2022-12-15T23:39:12.917Z,-4.24
2022-12-15T23:44:46.852Z,-4.22
2022-12-15T23:49:55.980Z,-4.18
2022-12-15T23:55:04.168Z,-4.01
